Time;durP1;ratioP1;P1;durP2;ratioP2;P2;SDS_P1;SDS_P2;PMS_P1;PMS_P2;Temp;Humidity;BMP_temperature;BMP_pressure;BME280_temperature;BME280_humidity;BME280_pressure;Samples;Min_cycle;Max_cycle;Signal;HPM_P1;HPM_P2
2022/05/03 00:01:13;;;;;;;0.70;0.70;;;5.10;92.10;;;;;;5047216;28;20627;-82
2022/05/03 00:03:49;;;;;;;0.70;0.70;;;5.00;92.30;;;;;;5037938;28;20225;-82
2022/05/03 00:06:34;;;;;;;0.80;0.80;;;5.00;92.70;;;;;;5038363;28;20197;-81
2022/05/03 00:09:07;;;;;;;0.80;0.80;;;5.10;92.50;;;;;;5056064;28;20657;-81
2022/05/03 00:11:37;;;;;;;8.90;1.90;;;5.10;92.60;;;;;;5055820;28;20186;-81
2022/05/03 00:14:32;;;;;;;0.70;0.70;;;5.00;92.70;;;;;;5054403;28;20197;-81
2022/05/03 00:16:59;;;;;;;0.60;0.60;;;5.00;92.90;;;;;;5036941;28;20605;-81
2022/05/03 00:19:27;;;;;;;0.85;0.85;;;4.90;93.20;;;;;;5055989;28;20194;-81
2022/05/03 00:21:53;;;;;;;0.70;0.70;;;4.90;93.40;;;;;;5041668;28;20462;-81
2022/05/03 00:24:19;;;;;;;0.70;0.70;;;4.80;93.60;;;;;;5070931;28;20295;-82
2022/05/03 00:26:45;;;;;;;0.60;0.60;;;4.80;93.50;;;;;;5071110;28;20665;-81
2022/05/03 00:29:11;;;;;;;0.70;0.70;;;4.70;93.70;;;;;;5054157;28;20616;-82
2022/05/03 00:31:37;;;;;;;0.70;0.70;;;4.70;93.70;;;;;;5070615;28;20190;-82
2022/05/03 00:34:04;;;;;;;0.90;0.85;;;4.70;93.70;;;;;;5070916;28;20194;-83
2022/05/03 00:36:31;;;;;;;0.70;0.70;;;4.80;93.60;;;;;;5053750;28;20197;-80
2022/05/03 00:38:57;;;;;;;0.80;0.80;;;4.80;93.30;;;;;;5070794;28;20212;-81
2022/05/03 00:41:41;;;;;;;0.70;0.70;;;4.80;93.40;;;;;;5055089;28;20216;-81
2022/05/03 00:47:07;;;;;;;0.60;0.60;;;4.80;93.40;;;;;;5055326;28;20208;-81
2022/05/03 00:50:07;;;;;;;0.80;0.80;;;4.80;93.40;;;;;;5054852;28;20645;-81
2022/05/03 00:52:49;;;;;;;1.10;1.10;;;4.70;93.50;;;;;;5054963;28;20190;-81
2022/05/03 00:55:39;;;;;;;1.05;1.00;;;4.70;93.50;;;;;;5053852;28;20660;-82
2022/05/03 00:58:34;;;;;;;0.70;0.70;;;4.60;93.80;;;;;;5054884;28;20205;-81
2022/05/03 01:01:32;;;;;;;0.60;0.60;;;4.50;93.80;;;;;;5056005;28;20197;-89
2022/05/03 01:04:22;;;;;;;0.70;0.70;;;4.50;94.00;;;;;;5056591;28;20216;-89
2022/05/03 01:07:32;;;;;;;0.68;0.68;;;4.40;94.20;;;;;;5059637;28;20194;-88
2022/05/03 01:10:26;;;;;;;0.70;0.70;;;4.30;94.50;;;;;;5059157;28;20193;-89
2022/05/03 01:13:11;;;;;;;0.70;0.70;;;4.20;94.80;;;;;;5042292;28;20663;-88
2022/05/03 01:15:46;;;;;;;0.60;0.60;;;4.10;95.00;;;;;;5041047;28;20198;-87
2022/05/03 01:18:21;;;;;;;0.70;0.70;;;4.00;95.20;;;;;;5040844;28;20257;-87
2022/05/03 01:20:53;;;;;;;0.70;0.70;;;3.90;95.40;;;;;;5042055;28;20612;-88
2022/05/03 01:23:45;;;;;;;0.60;0.60;;;3.90;95.70;;;;;;5059030;28;20233;-85
2022/05/03 01:26:14;;;;;;;0.88;0.88;;;3.90;95.60;;;;;;5042307;28;20194;-87
2022/05/03 01:28:59;;;;;;;0.70;0.70;;;3.80;95.80;;;;;;5060383;28;20190;-88
2022/05/03 01:31:28;;;;;;;0.70;0.70;;;3.70;96.00;;;;;;5042371;28;20185;-87
2022/05/03 01:34:00;;;;;;;0.70;0.70;;;3.60;96.30;;;;;;5041697;28;20197;-88
2022/05/03 01:36:53;;;;;;;0.80;0.80;;;3.50;96.60;;;;;;5040488;28;20669;-89
2022/05/03 01:39:36;;;;;;;0.70;0.70;;;3.30;97.20;;;;;;5034785;28;20197;-88
2022/05/03 01:42:10;;;;;;;0.70;0.70;;;3.30;97.20;;;;;;5040862;28;20205;-88
2022/05/03 01:45:02;;;;;;;0.70;0.70;;;3.40;97.30;;;;;;5040413;28;20208;-89
2022/05/03 01:47:39;;;;;;;0.70;0.70;;;3.30;97.60;;;;;;5050940;28;20205;-88
2022/05/03 01:50:30;;;;;;;0.70;0.70;;;3.20;97.80;;;;;;5057810;28;20284;-89
2022/05/03 01:53:19;;;;;;;0.57;0.57;;;3.20;98.00;;;;;;5058952;28;20197;-88
2022/05/03 01:56:00;;;;;;;0.70;0.70;;;3.20;98.30;;;;;;5060663;28;20199;-89
2022/05/03 01:58:40;;;;;;;0.60;0.60;;;3.20;97.80;;;;;;5038788;28;20190;-89
2022/05/03 02:01:17;;;;;;;0.65;0.65;;;3.20;98.10;;;;;;5042941;28;20186;-89
2022/05/03 02:04:18;;;;;;;0.60;0.60;;;3.20;97.70;;;;;;5036039;28;20214;-89
2022/05/03 02:07:30;;;;;;;0.80;0.80;;;3.20;98.30;;;;;;5037263;28;20198;-88
2022/05/03 02:10:12;;;;;;;0.80;0.80;;;3.00;98.40;;;;;;5001714;28;20665;-89
2022/05/03 02:12:45;;;;;;;0.70;0.70;;;2.80;99.40;;;;;;5037404;28;20198;-90
2022/05/03 02:15:17;;;;;;;0.70;0.70;;;2.60;99.90;;;;;;5037343;28;20198;-89
2022/05/03 02:17:48;;;;;;;0.60;0.60;;;2.50;99.90;;;;;;5037651;28;20229;-89
2022/05/03 02:20:17;;;;;;;0.80;0.80;;;2.30;99.90;;;;;;5036247;28;20209;-90
2022/05/03 02:22:55;;;;;;;0.70;0.70;;;2.20;99.90;;;;;;5036415;28;20688;-87
2022/05/03 02:26:08;;;;;;;3.28;1.33;;;2.00;99.90;;;;;;5037380;28;20221;-88
2022/05/03 02:28:43;;;;;;;0.60;0.60;;;1.80;99.90;;;;;;5010185;28;20209;-90
2022/05/03 02:31:13;;;;;;;0.70;0.70;;;1.70;99.90;;;;;;5036258;28;20632;-89
2022/05/03 02:34:04;;;;;;;0.70;0.70;;;1.60;99.90;;;;;;5036847;28;20744;-89
2022/05/03 02:36:41;;;;;;;0.60;0.60;;;1.50;99.90;;;;;;5055487;28;20197;-88
2022/05/03 02:39:09;;;;;;;0.57;0.57;;;1.30;99.90;;;;;;5056952;28;20243;-89
2022/05/03 02:41:41;;;;;;;0.60;0.60;;;1.30;99.90;;;;;;5056581;28;20612;-87
2022/05/03 02:44:06;;;;;;;0.70;0.70;;;1.40;99.90;;;;;;5056596;28;20205;-89
2022/05/03 02:46:32;;;;;;;0.73;0.73;;;1.40;99.90;;;;;;5057099;28;20247;-88
2022/05/03 02:49:10;;;;;;;0.90;0.90;;;1.40;99.90;;;;;;5054486;28;20221;-88
2022/05/03 02:52:22;;;;;;;0.60;0.60;;;1.60;99.90;;;;;;5039544;28;20288;-89
2022/05/03 02:55:15;;;;;;;0.60;0.60;;;1.60;99.90;;;;;;5022767;28;20218;-89
2022/05/03 02:57:56;;;;;;;0.85;0.85;;;1.70;99.90;;;;;;5050629;28;20198;-87
2022/05/03 03:03:42;;;;;;;0.70;0.70;;;1.90;99.90;;;;;;5059139;28;20200;-88
2022/05/03 03:06:31;;;;;;;0.70;0.70;;;2.00;99.90;;;;;;5043267;28;20205;-88
2022/05/03 03:08:59;;;;;;;0.80;0.80;;;2.10;99.90;;;;;;5060086;28;20293;-87
2022/05/03 03:11:48;;;;;;;0.70;0.70;;;2.20;99.90;;;;;;5060866;28;20637;-89
2022/05/03 03:14:21;;;;;;;0.60;0.60;;;2.20;99.90;;;;;;5043680;28;20205;-90
2022/05/03 03:16:54;;;;;;;0.70;0.70;;;2.20;99.90;;;;;;5060695;28;20198;-89
2022/05/03 03:19:38;;;;;;;0.70;0.70;;;2.10;99.90;;;;;;5060315;28;20600;-86
2022/05/03 03:22:07;;;;;;;0.82;0.82;;;2.10;99.90;;;;;;5043411;28;20603;-89
2022/05/03 03:24:35;;;;;;;0.80;0.80;;;2.10;99.90;;;;;;5060484;28;20209;-87
2022/05/03 03:27:04;;;;;;;0.60;0.60;;;2.10;99.90;;;;;;5061116;28;20257;-89
2022/05/03 03:29:31;;;;;;;0.50;0.50;;;2.20;99.90;;;;;;5060934;28;20675;-88
2022/05/03 03:32:00;;;;;;;1.00;1.00;;;2.10;99.90;;;;;;5061771;28;20193;-89
2022/05/03 03:34:28;;;;;;;0.70;0.70;;;2.10;99.90;;;;;;5064321;28;20197;-87
2022/05/03 03:37:04;;;;;;;0.75;0.75;;;2.10;99.90;;;;;;5067487;28;20193;-88
2022/05/03 03:39:31;;;;;;;0.68;0.68;;;2.20;99.90;;;;;;5065408;28;20201;-87
2022/05/03 03:42:04;;;;;;;0.80;0.80;;;2.30;99.90;;;;;;5063188;28;20280;-88
2022/05/03 03:44:31;;;;;;;0.60;0.60;;;2.50;99.90;;;;;;5062642;28;20212;-86
2022/05/03 03:46:58;;;;;;;0.70;0.70;;;2.70;99.90;;;;;;5080984;28;20189;-87
2022/05/03 03:49:24;;;;;;;0.60;0.60;;;2.80;99.90;;;;;;5079071;28;20588;-88
2022/05/03 03:51:50;;;;;;;1.00;1.00;;;2.90;99.90;;;;;;5080110;28;20189;-87
2022/05/03 03:54:17;;;;;;;0.70;0.70;;;3.00;99.90;;;;;;5078126;28;20204;-89
2022/05/03 03:56:45;;;;;;;0.70;0.70;;;3.10;99.90;;;;;;5079250;28;20304;-88
2022/05/03 03:59:13;;;;;;;0.70;0.70;;;3.10;99.90;;;;;;5063173;28;20201;-86
2022/05/03 04:01:40;;;;;;;0.60;0.60;;;3.20;99.90;;;;;;5043084;28;20213;-89
2022/05/03 04:04:07;;;;;;;0.70;0.70;;;3.20;99.90;;;;;;5060452;28;20208;-86
2022/05/03 04:06:34;;;;;;;0.60;0.60;;;3.30;99.90;;;;;;5041189;28;20620;-88
2022/05/03 04:09:00;;;;;;;0.70;0.70;;;3.30;99.90;;;;;;5041820;28;20213;-88
2022/05/03 04:11:26;;;;;;;0.70;0.70;;;3.40;99.90;;;;;;5059127;28;20197;-89
2022/05/03 04:13:52;;;;;;;0.60;0.60;;;3.40;99.90;;;;;;5041028;28;20205;-89
2022/05/03 04:16:18;;;;;;;1.42;1.33;;;3.50;99.90;;;;;;5060099;28;20194;-88
2022/05/03 04:18:44;;;;;;;0.65;0.65;;;3.50;99.90;;;;;;5042664;28;20272;-89
2022/05/03 04:21:14;;;;;;;0.60;0.60;;;3.50;99.90;;;;;;5042912;28;20212;-89
2022/05/03 04:23:40;;;;;;;0.80;0.80;;;3.60;99.90;;;;;;5042629;28;20229;-88
2022/05/03 04:26:06;;;;;;;0.70;0.70;;;3.70;99.90;;;;;;5041337;28;20211;-89
2022/05/03 04:28:32;;;;;;;0.60;0.60;;;3.70;99.90;;;;;;5042166;28;20698;-89
2022/05/03 04:30:58;;;;;;;0.60;0.60;;;3.70;99.90;;;;;;5045349;28;20197;-90
2022/05/03 04:33:23;;;;;;;0.60;0.60;;;3.80;99.90;;;;;;5041789;28;20251;-90
2022/05/03 04:35:49;;;;;;;0.70;0.70;;;3.80;99.90;;;;;;5042057;28;20224;-91
2022/05/03 04:38:15;;;;;;;0.63;0.63;;;3.80;99.90;;;;;;5041825;28;20230;-89
2022/05/03 04:40:40;;;;;;;0.70;0.70;;;4.00;99.90;;;;;;5042127;28;20193;-89
2022/05/03 04:43:06;;;;;;;0.70;0.70;;;4.00;99.90;;;;;;5055618;28;20284;-89
2022/05/03 04:45:32;;;;;;;0.60;0.60;;;4.00;99.90;;;;;;5056675;28;20272;-89
2022/05/03 04:47:58;;;;;;;0.70;0.70;;;4.10;99.90;;;;;;5056014;28;20189;-87
2022/05/03 04:50:23;;;;;;;0.70;0.70;;;4.20;99.90;;;;;;5055949;28;20213;-89
2022/05/03 04:52:51;;;;;;;0.70;0.70;;;4.20;99.90;;;;;;5058955;28;20242;-90
2022/05/03 04:55:17;;;;;;;0.80;0.80;;;4.30;99.90;;;;;;5058867;28;20193;-88
2022/05/03 04:57:42;;;;;;;0.75;0.75;;;4.40;99.90;;;;;;5060681;28;20203;-88
2022/05/03 05:00:09;;;;;;;0.60;0.60;;;4.40;99.90;;;;;;5053554;28;20281;-89
2022/05/03 05:02:35;;;;;;;0.70;0.70;;;4.50;99.90;;;;;;5055994;28;20202;-88
2022/05/03 05:05:00;;;;;;;0.70;0.70;;;4.60;99.90;;;;;;5039172;28;20209;-87
2022/05/03 05:07:26;;;;;;;0.70;0.70;;;4.70;99.90;;;;;;5038762;28;20198;-87
2022/05/03 05:10:36;;;;;;;0.70;0.70;;;4.90;99.90;;;;;;5055522;28;20204;-89
2022/05/03 05:12:37;;;;;;;0.80;0.80;;;5.00;99.90;;;;;;5049164;28;20204;-88
2022/05/03 05:15:03;;;;;;;0.70;0.70;;;5.00;99.90;;;;;;5055232;28;20197;-89
2022/05/03 05:17:33;;;;;;;0.70;0.70;;;5.10;99.80;;;;;;5057026;28;20606;-88
2022/05/03 05:19:58;;;;;;;0.60;0.60;;;5.10;99.50;;;;;;5055537;28;20205;-89
2022/05/03 05:22:27;;;;;;;1.52;1.15;;;5.10;99.60;;;;;;5055204;28;20237;-87
2022/05/03 05:24:53;;;;;;;0.70;0.70;;;5.10;98.70;;;;;;5040178;28;20212;-87
2022/05/03 05:27:18;;;;;;;2.53;1.65;;;5.20;98.60;;;;;;5058004;28;20201;-86
2022/05/03 05:29:44;;;;;;;0.57;0.57;;;5.30;98.10;;;;;;5042141;28;20198;-87
2022/05/03 05:32:10;;;;;;;0.60;0.60;;;5.30;96.90;;;;;;5040916;28;20731;-87
2022/05/03 05:34:36;;;;;;;0.68;0.68;;;5.30;96.30;;;;;;5041022;28;20197;-88
2022/05/03 05:37:02;;;;;;;0.70;0.70;;;5.30;96.80;;;;;;5041145;28;20205;-88
2022/05/03 05:39:28;;;;;;;0.70;0.70;;;5.40;95.80;;;;;;5077882;28;20192;-87
2022/05/03 05:41:59;;;;;;;0.70;0.70;;;5.50;95.60;;;;;;5078272;28;20606;-88
2022/05/03 05:44:25;;;;;;;0.70;0.70;;;5.60;95.10;;;;;;5077030;28;20212;-89
2022/05/03 05:46:52;;;;;;;0.70;0.70;;;5.60;94.90;;;;;;5076605;28;20193;-89
2022/05/03 05:49:18;;;;;;;0.70;0.70;;;5.70;94.50;;;;;;5077245;28;20672;-89
2022/05/03 05:51:45;;;;;;;0.80;0.80;;;5.80;93.60;;;;;;5059737;28;20532;-88
2022/05/03 05:54:11;;;;;;;0.60;0.60;;;5.90;93.20;;;;;;5059169;28;20197;-89
2022/05/03 05:56:37;;;;;;;0.70;0.70;;;6.00;93.10;;;;;;5058262;28;20203;-89
2022/05/03 05:59:03;;;;;;;0.70;0.70;;;6.00;93.30;;;;;;5058626;28;20197;-89
2022/05/03 06:01:41;;;;;;;0.70;0.70;;;6.10;92.90;;;;;;5041432;28;20194;-91
2022/05/03 06:04:08;;;;;;;0.70;0.70;;;6.30;92.70;;;;;;5054917;28;20220;-89
2022/05/03 06:06:36;;;;;;;0.70;0.70;;;6.50;92.20;;;;;;5056508;28;20197;-90
2022/05/03 06:09:05;;;;;;;0.80;0.80;;;6.50;91.40;;;;;;5057324;28;20197;-89
2022/05/03 06:11:31;;;;;;;1.10;0.88;;;6.50;91.60;;;;;;5039238;28;20288;-90
2022/05/03 06:14:00;;;;;;;0.70;0.70;;;6.50;92.00;;;;;;5055860;28;20259;-90
2022/05/03 06:16:26;;;;;;;0.70;0.70;;;6.60;91.60;;;;;;5038575;28;20737;-89
2022/05/03 06:18:51;;;;;;;0.70;0.70;;;6.80;92.00;;;;;;5056980;28;20253;-90
2022/05/03 06:21:17;;;;;;;0.70;0.70;;;6.80;90.60;;;;;;5071630;28;20283;-92
2022/05/03 06:23:43;;;;;;;0.70;0.70;;;6.90;90.10;;;;;;5060436;28;20626;-90
2022/05/03 06:26:09;;;;;;;0.77;0.77;;;6.80;90.30;;;;;;5062851;28;20200;-90
2022/05/03 06:28:35;;;;;;;0.70;0.70;;;7.00;90.50;;;;;;5059649;28;20224;-88
2022/05/03 06:31:01;;;;;;;0.60;0.60;;;7.10;89.10;;;;;;5059650;28;20193;-89
2022/05/03 06:33:27;;;;;;;0.77;0.77;;;7.20;89.90;;;;;;5077482;28;20207;-90
2022/05/03 06:35:53;;;;;;;0.70;0.70;;;7.20;89.20;;;;;;5079228;28;20228;-89
2022/05/03 06:38:19;;;;;;;1.00;1.00;;;7.10;88.20;;;;;;5078507;28;20199;-87
2022/05/03 06:40:44;;;;;;;0.70;0.70;;;7.20;88.80;;;;;;5079816;28;20188;-90
2022/05/03 06:43:13;;;;;;;0.70;0.70;;;7.40;88.80;;;;;;5078516;28;20197;-89
2022/05/03 06:45:39;;;;;;;0.70;0.70;;;7.60;85.20;;;;;;5077864;28;20671;-88
2022/05/03 06:49:20;;;;;;;;;;;;;;;;;;;;;
2022/05/03 06:58:45;;;;;;;0.60;0.60;;;7.80;84.40;;;;;;4987405;28;20231;-88
2022/05/03 07:01:13;;;;;;;0.70;0.70;;;8.00;82.70;;;;;;5046983;28;20300;-88
2022/05/03 07:03:39;;;;;;;0.68;0.68;;;8.10;85.20;;;;;;5057337;28;20684;-88
2022/05/03 07:06:06;;;;;;;0.68;0.68;;;8.30;82.80;;;;;;5057125;28;20243;-89
2022/05/03 07:08:32;;;;;;;0.60;0.60;;;8.40;81.30;;;;;;5058209;28;20190;-89
2022/05/03 07:10:58;;;;;;;0.70;0.70;;;8.50;83.30;;;;;;5058965;28;20207;-89
2022/05/03 07:13:25;;;;;;;1.70;1.60;;;8.40;83.00;;;;;;5057027;28;20198;-89
2022/05/03 07:15:56;;;;;;;0.70;0.70;;;8.60;82.80;;;;;;5056990;28;20281;-88
2022/05/03 07:23:51;;;;;;;0.70;0.70;;;8.50;79.90;;;;;;5058172;28;20308;-89
2022/05/03 07:26:18;;;;;;;0.70;0.70;;;8.70;81.00;;;;;;5039948;28;20621;-88
2022/05/03 07:28:43;;;;;;;0.73;0.70;;;8.90;81.90;;;;;;5057895;28;20185;-88
2022/05/03 07:31:09;;;;;;;0.60;0.60;;;9.20;79.70;;;;;;5050292;28;20228;-88
2022/05/03 07:33:36;;;;;;;0.70;0.70;;;9.40;79.90;;;;;;5039380;28;20197;-89
2022/05/03 07:36:05;;;;;;;0.60;0.60;;;9.60;77.60;;;;;;5038766;28;20198;-89
2022/05/03 07:38:30;;;;;;;0.70;0.70;;;9.60;74.10;;;;;;5039145;28;20339;-89
2022/05/03 07:40:56;;;;;;;0.60;0.60;;;9.20;75.00;;;;;;5039924;28;20657;-90
2022/05/03 07:43:23;;;;;;;0.70;0.70;;;9.30;76.80;;;;;;5075394;28;20196;-88
2022/05/03 07:45:49;;;;;;;0.60;0.60;;;9.30;75.80;;;;;;5076630;28;20217;-88
2022/05/03 07:48:15;;;;;;;0.70;0.70;;;9.50;76.00;;;;;;5060050;28;20212;-88
2022/05/03 07:50:40;;;;;;;0.60;0.60;;;9.80;73.30;;;;;;5059302;28;20198;-87
2022/05/03 07:53:06;;;;;;;0.63;0.63;;;9.80;73.50;;;;;;5059902;28;20193;-89
2022/05/03 07:55:32;;;;;;;0.60;0.60;;;10.10;72.10;;;;;;5059381;28;20255;-90
2022/05/03 07:57:57;;;;;;;0.60;0.60;;;10.20;72.50;;;;;;5059446;28;20196;-89
2022/05/03 08:00:23;;;;;;;0.60;0.60;;;10.10;70.90;;;;;;5051843;28;20198;-89
2022/05/03 08:02:49;;;;;;;0.60;0.60;;;10.10;72.20;;;;;;5039354;28;20220;-88
2022/05/03 08:05:16;;;;;;;0.60;0.60;;;10.20;73.30;;;;;;5039195;28;20214;-89
2022/05/03 08:07:42;;;;;;;0.50;0.50;;;10.40;75.60;;;;;;5039395;28;20205;-90
2022/05/03 08:10:08;;;;;;;0.60;0.60;;;10.60;72.80;;;;;;5038527;28;20659;-89
2022/05/03 08:12:35;;;;;;;0.63;0.63;;;10.30;71.80;;;;;;5055172;28;20654;-88
2022/05/03 08:15:02;;;;;;;0.60;0.60;;;10.10;71.80;;;;;;5039308;28;20221;-89
2022/05/03 08:17:28;;;;;;;0.60;0.60;;;10.30;72.00;;;;;;5039053;28;20201;-89
2022/05/03 08:19:54;;;;;;;0.57;0.57;;;10.50;72.40;;;;;;5039577;28;20202;-89
2022/05/03 08:22:20;;;;;;;0.60;0.60;;;10.60;70.90;;;;;;5035501;28;20253;-88
2022/05/03 08:24:46;;;;;;;0.60;0.60;;;10.60;72.10;;;;;;5019247;28;20272;-89
2022/05/03 08:27:12;;;;;;;0.60;0.60;;;10.80;70.10;;;;;;5048702;28;20212;-85
2022/05/03 08:29:37;;;;;;;0.60;0.60;;;10.80;68.10;;;;;;5056464;28;20667;-87
2022/05/03 08:32:04;;;;;;;0.60;0.60;;;10.70;68.40;;;;;;5057187;28;20196;-88
2022/05/03 08:34:31;;;;;;;0.60;0.60;;;10.90;70.20;;;;;;5056776;28;20260;-88
2022/05/03 08:42:28;;;;;;;0.82;0.82;;;11.80;67.20;;;;;;5056339;28;20255;-89
2022/05/03 08:44:56;;;;;;;0.60;0.60;;;11.60;68.50;;;;;;5055006;28;20206;-88
2022/05/03 08:47:25;;;;;;;0.80;0.80;;;11.30;67.60;;;;;;5055327;28;20204;-88
2022/05/03 08:49:58;;;;;;;0.60;0.60;;;11.50;68.40;;;;;;5056963;28;20194;-88
2022/05/03 08:52:27;;;;;;;0.60;0.60;;;11.50;68.40;;;;;;5038557;28;20536;-88
2022/05/03 08:54:53;;;;;;;0.60;0.60;;;11.50;66.50;;;;;;5057015;28;20200;-88
2022/05/03 08:57:19;;;;;;;0.60;0.60;;;11.50;66.40;;;;;;5054103;28;20568;-88
2022/05/03 08:59:48;;;;;;;0.50;0.50;;;11.30;66.00;;;;;;5055509;28;20271;-89
2022/05/03 09:02:14;;;;;;;0.70;0.70;;;11.20;68.00;;;;;;5018925;28;20195;-88
2022/05/03 09:04:40;;;;;;;0.50;0.50;;;11.40;67.50;;;;;;5035747;28;20217;-89
2022/05/03 09:07:21;;;;;;;0.60;0.60;;;11.60;65.80;;;;;;5035674;28;20194;-87
2022/05/03 09:09:48;;;;;;;0.50;0.50;;;11.70;65.60;;;;;;5018464;28;20198;-86
2022/05/03 09:12:31;;;;;;;1.27;0.95;;;11.90;67.80;;;;;;5036123;28;20197;-87
2022/05/03 09:14:59;;;;;;;0.60;0.60;;;12.00;61.60;;;;;;5018734;28;20225;-87
2022/05/03 09:17:43;;;;;;;0.52;0.52;;;12.00;64.10;;;;;;5051280;28;20202;-88
2022/05/03 09:26:18;;;;;;;0.60;0.60;;;11.90;63.50;;;;;;5076429;28;20281;-88
2022/05/03 09:28:58;;;;;;;0.57;0.57;;;11.80;65.10;;;;;;5076302;28;20192;-87
2022/05/03 09:31:30;;;;;;;0.50;0.50;;;12.20;64.20;;;;;;5057984;28;20579;-87
2022/05/03 09:34:49;;;;;;;;;;;;;;;;;;;;;
2022/05/03 09:37:18;;;;;;;0.50;0.50;;;13.10;58.30;;;;;;5063299;28;20284;-89
2022/05/03 09:39:48;;;;;;;0.50;0.50;;;13.00;60.60;;;;;;5075116;28;20207;-88
2022/05/03 09:42:14;;;;;;;0.60;0.60;;;13.20;61.10;;;;;;5075490;28;20196;-87
2022/05/03 09:45:02;;;;;;;0.50;0.50;;;13.10;60.80;;;;;;5058112;28;20216;-89
2022/05/03 09:47:33;;;;;;;0.70;0.60;;;12.80;62.80;;;;;;5076102;28;20193;-86
2022/05/03 09:49:59;;;;;;;0.65;0.65;;;12.90;60.40;;;;;;5074234;28;20287;-88
2022/05/03 09:52:36;;;;;;;0.50;0.50;;;13.30;59.80;;;;;;5073269;28;20294;-88
2022/05/03 09:55:08;;;;;;;0.50;0.50;;;13.50;58.90;;;;;;5033983;28;20201;-88
2022/05/03 09:57:36;;;;;;;0.40;0.40;;;13.60;57.60;;;;;;5017586;28;20202;-88
2022/05/03 10:00:05;;;;;;;0.50;0.50;;;14.10;57.80;;;;;;5034242;28;20202;-88
2022/05/03 10:02:32;;;;;;;0.50;0.50;;;13.60;56.50;;;;;;5017986;28;20202;-88
2022/05/03 10:04:59;;;;;;;0.50;0.50;;;13.50;58.30;;;;;;5049845;28;20205;-89
2022/05/03 10:07:26;;;;;;;0.50;0.50;;;13.60;58.40;;;;;;5075572;28;20656;-88
2022/05/03 10:09:52;;;;;;;0.50;0.50;;;13.90;59.40;;;;;;5062504;28;20258;-88
2022/05/03 10:12:19;;;;;;;0.43;0.43;;;13.60;55.40;;;;;;5063017;28;20196;-89
2022/05/03 10:14:46;;;;;;;0.47;0.47;;;13.50;58.10;;;;;;5080312;28;20219;-86
2022/05/03 10:22:51;;;;;;;0.40;0.40;;;14.60;58.10;;;;;;5063459;28;20240;-79
2022/05/03 10:25:28;;;;;;;0.68;0.68;;;15.40;56.50;;;;;;5056977;28;20579;-80
2022/05/03 10:27:55;;;;;;;0.40;0.40;;;15.50;53.40;;;;;;5038916;28;20197;-80
2022/05/03 10:30:23;;;;;;;0.40;0.40;;;15.00;60.80;;;;;;5056677;28;20299;-79
2022/05/03 10:33:20;;;;;;;0.40;0.40;;;15.30;58.20;;;;;;5039106;28;20264;-80
2022/05/03 10:35:49;;;;;;;0.50;0.50;;;15.20;53.30;;;;;;5035197;28;20206;-80
2022/05/03 10:38:15;;;;;;;0.40;0.40;;;14.60;56.30;;;;;;5036688;28;20240;-79
2022/05/03 10:40:48;;;;;;;0.30;0.30;;;14.20;57.60;;;;;;5035291;28;20194;-81
2022/05/03 10:43:25;;;;;;;0.77;0.77;;;15.10;59.30;;;;;;5036552;28;20240;-81
2022/05/03 10:46:08;;;;;;;0.50;0.50;;;16.00;56.10;;;;;;5051839;28;20206;-83
2022/05/03 10:48:35;;;;;;;0.40;0.40;;;16.60;54.30;;;;;;5036448;28;20201;-78
2022/05/03 10:51:04;;;;;;;0.50;0.50;;;16.20;53.00;;;;;;5034666;28;20494;-77
2022/05/03 10:53:35;;;;;;;0.55;0.55;;;16.60;53.00;;;;;;5034793;28;20657;-79
2022/05/03 10:56:05;;;;;;;0.30;0.30;;;16.20;51.70;;;;;;5035255;28;20202;-80
2022/05/03 10:58:36;;;;;;;0.40;0.40;;;16.00;53.30;;;;;;5036312;28;20194;-80
2022/05/03 11:01:21;;;;;;;0.40;0.40;;;15.80;51.80;;;;;;5047715;28;20221;-79
2022/05/03 11:03:54;;;;;;;0.40;0.40;;;15.80;53.40;;;;;;5055017;28;22075;-80
2022/05/03 11:06:22;;;;;;;0.30;0.30;;;15.70;50.50;;;;;;5054616;28;20231;-80
2022/05/03 11:14:25;;;;;;;0.40;0.40;;;15.40;53.90;;;;;;5056214;28;20193;-79
2022/05/03 11:17:11;;;;;;;0.50;0.50;;;15.40;52.20;;;;;;5054228;28;20209;-79
2022/05/03 11:19:50;;;;;;;0.30;0.30;;;15.70;54.90;;;;;;5054220;28;20197;-77
2022/05/03 11:22:22;;;;;;;0.43;0.43;;;16.00;51.80;;;;;;5063584;28;20275;-77
2022/05/03 11:24:53;;;;;;;0.70;0.70;;;15.80;52.50;;;;;;5074445;28;20266;-78
2022/05/03 11:27:20;;;;;;;0.40;0.40;;;16.00;53.90;;;;;;5057902;28;20725;-78
2022/05/03 11:29:55;;;;;;;0.52;0.52;;;16.10;51.40;;;;;;5057843;28;20196;-78
2022/05/03 11:32:28;;;;;;;0.40;0.40;;;16.00;50.60;;;;;;5073921;28;20601;-79
2022/05/03 11:35:02;;;;;;;0.40;0.40;;;15.90;52.90;;;;;;5065275;28;20197;-79
2022/05/03 11:37:28;;;;;;;0.40;0.40;;;15.80;49.20;;;;;;5054852;28;20224;-79
2022/05/03 11:40:04;;;;;;;0.47;0.47;;;15.60;51.40;;;;;;5053451;28;20193;-79
2022/05/03 11:42:39;;;;;;;0.38;0.38;;;15.40;53.90;;;;;;5053573;28;20746;-79
2022/05/03 11:45:06;;;;;;;0.40;0.40;;;16.00;55.60;;;;;;5053955;28;20259;-79
2022/05/03 11:47:35;;;;;;;0.30;0.30;;;16.70;52.00;;;;;;5053783;28;20244;-78
2022/05/03 11:50:02;;;;;;;0.30;0.30;;;16.70;51.10;;;;;;5053628;28;20712;-80
2022/05/03 11:57:56;;;;;;;0.38;0.38;;;16.10;54.90;;;;;;5055076;28;20284;-78
2022/05/03 12:00:22;;;;;;;0.40;0.40;;;16.40;52.60;;;;;;5049262;28;20625;-79
2022/05/03 12:02:48;;;;;;;0.38;0.38;;;16.60;54.30;;;;;;5055195;28;20250;-78
2022/05/03 12:05:19;;;;;;;0.30;0.30;;;16.40;50.60;;;;;;5053620;28;20205;-78
2022/05/03 12:07:49;;;;;;;0.30;0.30;;;16.60;51.40;;;;;;5053400;28;20228;-78
2022/05/03 12:10:31;;;;;;;0.38;0.38;;;16.90;52.00;;;;;;5053663;28;20204;-79
2022/05/03 12:13:14;;;;;;;0.30;0.30;;;17.00;49.90;;;;;;5051377;28;20232;-78
2022/05/03 12:16:07;;;;;;;0.40;0.40;;;16.80;51.20;;;;;;5052926;28;20690;-77
2022/05/03 12:18:35;;;;;;;1.30;0.65;;;16.80;50.30;;;;;;5052449;28;20213;-78
2022/05/03 12:21:10;;;;;;;0.28;0.28;;;16.30;51.30;;;;;;5036623;28;20201;-78
2022/05/03 12:23:36;;;;;;;0.30;0.30;;;16.30;53.00;;;;;;5032659;28;20226;-78
2022/05/03 12:26:20;;;;;;;0.32;0.32;;;16.40;52.90;;;;;;5034510;28;20194;-78
2022/05/03 12:28:58;;;;;;;0.30;0.30;;;16.50;50.00;;;;;;5016905;28;20190;-79
2022/05/03 12:31:34;;;;;;;0.38;0.38;;;16.10;50.20;;;;;;5034038;28;20703;-79
2022/05/03 12:34:00;;;;;;;0.40;0.40;;;16.20;51.30;;;;;;5016673;28;20572;-79
2022/05/03 12:36:40;;;;;;;0.38;0.38;;;16.70;50.20;;;;;;5034293;28;20588;-78
2022/05/03 12:39:13;;;;;;;0.30;0.30;;;16.40;50.90;;;;;;5016488;28;20198;-79
2022/05/03 12:41:39;;;;;;;0.30;0.30;;;16.40;51.60;;;;;;5034133;28;20276;-78
2022/05/03 12:44:09;;;;;;;0.30;0.30;;;16.60;50.20;;;;;;5034298;28;20206;-79
2022/05/03 12:46:36;;;;;;;0.98;0.95;;;16.80;50.20;;;;;;5034166;28;20556;-79
2022/05/03 12:49:04;;;;;;;0.40;0.40;;;16.10;51.90;;;;;;5034113;28;20191;-78
2022/05/03 12:51:32;;;;;;;0.32;0.32;;;16.00;52.00;;;;;;5016040;28;20202;-77
2022/05/03 12:54:02;;;;;;;0.40;0.40;;;16.00;51.80;;;;;;5039945;28;20247;-79
2022/05/03 12:59:13;;;;;;;0.22;0.22;;;17.40;51.30;;;;;;5053208;28;20350;-79
2022/05/03 13:01:39;;;;;;;0.30;0.30;;;17.20;50.60;;;;;;5014485;28;20269;-78
2022/05/03 13:04:05;;;;;;;0.50;0.50;;;17.40;52.30;;;;;;5012350;28;20211;-78
2022/05/03 13:06:31;;;;;;;0.30;0.30;;;17.40;50.00;;;;;;5012312;28;20194;-78
2022/05/03 13:08:57;;;;;;;0.30;0.30;;;17.60;51.80;;;;;;5014480;28;20596;-79
2022/05/03 13:11:22;;;;;;;0.30;0.30;;;17.80;49.80;;;;;;5014425;28;20198;-79
2022/05/03 13:13:49;;;;;;;0.30;0.30;;;17.30;49.80;;;;;;5014471;28;20191;-78
2022/05/03 13:16:15;;;;;;;0.38;0.38;;;16.60;49.10;;;;;;5014359;28;20326;-79
2022/05/03 13:18:41;;;;;;;0.30;0.30;;;16.50;50.80;;;;;;5012725;28;20198;-78
2022/05/03 13:21:07;;;;;;;0.30;0.30;;;16.50;52.70;;;;;;4996513;28;20199;-78
2022/05/03 13:23:33;;;;;;;0.20;0.20;;;16.60;49.20;;;;;;5014648;28;20716;-79
2022/05/03 13:25:58;;;;;;;0.40;0.40;;;16.70;50.80;;;;;;5032992;28;20208;-79
2022/05/03 13:28:24;;;;;;;0.30;0.30;;;16.80;51.50;;;;;;5053368;28;20194;-78
2022/05/03 13:30:50;;;;;;;0.30;0.30;;;16.90;49.80;;;;;;5053482;28;20194;-78
2022/05/03 13:33:16;;;;;;;0.32;0.32;;;16.80;50.10;;;;;;5053363;28;20186;-79
2022/05/03 13:41:10;;;;;;;0.30;0.30;;;17.20;49.30;;;;;;5073804;28;20562;-79
2022/05/03 13:43:36;;;;;;;0.38;0.38;;;16.60;50.10;;;;;;5054522;28;20229;-78
2022/05/03 13:46:01;;;;;;;0.50;0.50;;;16.40;49.30;;;;;;5072569;28;20197;-78
2022/05/03 13:48:28;;;;;;;0.30;0.30;;;16.20;51.00;;;;;;5071836;28;20250;-79
2022/05/03 13:50:54;;;;;;;0.30;0.30;;;16.10;50.60;;;;;;5052903;28;20557;-78
2022/05/03 13:53:19;;;;;;;0.30;0.30;;;16.10;52.10;;;;;;5051808;28;20205;-79
2022/05/03 13:55:45;;;;;;;0.30;0.30;;;16.20;50.70;;;;;;5052153;28;20236;-78
2022/05/03 13:58:12;;;;;;;0.30;0.30;;;16.40;54.30;;;;;;5052234;28;20193;-79
2022/05/03 14:00:41;;;;;;;0.65;0.65;;;16.90;50.10;;;;;;5052817;28;20656;-79
2022/05/03 14:03:08;;;;;;;0.25;0.25;;;17.00;51.00;;;;;;5053342;28;20201;-79
2022/05/03 14:05:36;;;;;;;0.30;0.30;;;17.30;50.50;;;;;;5053052;28;20236;-78
2022/05/03 14:08:02;;;;;;;1.33;0.65;;;17.00;50.10;;;;;;5051908;28;20204;-79
2022/05/03 14:10:30;;;;;;;0.43;0.43;;;17.10;49.80;;;;;;5052915;28;20238;-79
2022/05/03 14:12:56;;;;;;;0.30;0.30;;;16.90;50.10;;;;;;5035320;28;20208;-78